Time;durP1;ratioP1;P1;durP2;ratioP2;P2;SDS_P1;SDS_P2;PMS_P1;PMS_P2;Temp;Humidity;BMP_temperature;BMP_pressure;BME280_temperature;BME280_humidity;BME280_pressure;Samples;Min_cycle;Max_cycle;Signal;HPM_P1;HPM_P2
2023/06/28 00:01:07;;;;;;;7.53;2.97;;;15.30;99.90;;;;;;5051352;28;20048;-62
2023/06/28 00:03:33;;;;;;;10.68;3.83;;;15.30;99.90;;;;;;5052033;28;20122;-62
2023/06/28 00:05:58;;;;;;;7.60;3.40;;;15.30;99.90;;;;;;5033872;28;20075;-63
2023/06/28 00:08:24;;;;;;;11.15;3.67;;;15.30;99.90;;;;;;5033233;28;20041;-62
2023/06/28 00:10:50;;;;;;;8.30;3.20;;;15.30;99.90;;;;;;5051864;28;20037;-62
2023/06/28 00:13:17;;;;;;;9.40;3.13;;;15.30;99.90;;;;;;5033941;28;20087;-63
2023/06/28 00:15:42;;;;;;;7.78;3.40;;;15.30;99.90;;;;;;5051190;28;20081;-63
2023/06/28 00:18:08;;;;;;;10.40;3.55;;;15.30;99.90;;;;;;5052091;28;20070;-63
2023/06/28 00:20:34;;;;;;;9.05;3.25;;;15.30;99.90;;;;;;5051721;28;20055;-63
2023/06/28 00:23:00;;;;;;;8.07;2.95;;;15.30;99.90;;;;;;5051012;28;20033;-63
2023/06/28 00:25:26;;;;;;;8.77;2.83;;;15.30;99.90;;;;;;5051710;28;20079;-63
2023/06/28 00:27:51;;;;;;;8.23;3.08;;;15.30;99.90;;;;;;5033799;28;20068;-62
2023/06/28 00:30:17;;;;;;;8.80;3.30;;;15.30;99.90;;;;;;5050780;28;20398;-62
2023/06/28 00:32:43;;;;;;;7.80;2.97;;;15.20;99.90;;;;;;5051740;28;20041;-63
2023/06/28 00:35:09;;;;;;;5.88;2.53;;;15.20;99.90;;;;;;5034290;28;20045;-63
2023/06/28 00:37:34;;;;;;;9.45;3.00;;;15.20;99.90;;;;;;5033114;28;20137;-63
2023/06/28 00:40:00;;;;;;;7.60;3.00;;;15.20;99.90;;;;;;5033766;28;20060;-62
2023/06/28 00:42:26;;;;;;;9.48;3.03;;;15.20;99.90;;;;;;5051432;28;20045;-63
2023/06/28 00:44:51;;;;;;;6.43;2.78;;;15.20;99.90;;;;;;5040882;28;20120;-63
2023/06/28 00:47:18;;;;;;;7.80;2.92;;;15.20;99.90;;;;;;5051781;28;20121;-62
2023/06/28 00:49:45;;;;;;;8.63;3.30;;;15.20;99.90;;;;;;5036714;28;20045;-62
2023/06/28 00:52:12;;;;;;;7.25;2.83;;;15.20;99.90;;;;;;5037985;28;20084;-62
2023/06/28 00:54:38;;;;;;;6.32;2.50;;;15.20;99.90;;;;;;5055649;28;20045;-63
2023/06/28 00:57:05;;;;;;;7.47;3.58;;;15.20;99.90;;;;;;5054683;28;20378;-63
2023/06/28 00:59:31;;;;;;;8.00;3.05;;;15.20;99.90;;;;;;5055802;28;20047;-63
2023/06/28 01:01:57;;;;;;;7.50;3.22;;;15.20;99.90;;;;;;5053812;28;20045;-63
2023/06/28 01:04:23;;;;;;;7.97;3.15;;;15.20;99.90;;;;;;5053389;28;20486;-62
2023/06/28 01:06:54;;;;;;;8.32;3.40;;;15.20;99.90;;;;;;5054288;28;20052;-63
2023/06/28 01:09:25;;;;;;;8.55;3.08;;;15.20;99.90;;;;;;5053913;28;20040;-62
2023/06/28 01:11:53;;;;;;;9.20;3.15;;;15.20;99.90;;;;;;5052967;28;20494;-62
2023/06/28 01:14:19;;;;;;;8.18;3.25;;;15.20;99.90;;;;;;5037083;28;20084;-63
2023/06/28 01:16:54;;;;;;;6.53;3.65;;;15.20;99.90;;;;;;5037405;28;20041;-62
2023/06/28 01:19:25;;;;;;;9.32;4.10;;;15.30;99.90;;;;;;5055487;28;20036;-62
2023/06/28 01:21:56;;;;;;;7.50;3.22;;;15.20;99.90;;;;;;5040281;28;20044;-62
2023/06/28 01:24:22;;;;;;;9.85;3.60;;;15.30;99.90;;;;;;5074753;28;20036;-62
2023/06/28 01:26:52;;;;;;;9.65;3.88;;;15.30;99.90;;;;;;5074122;28;20036;-62
2023/06/28 01:29:23;;;;;;;7.47;3.60;;;15.30;99.90;;;;;;5056846;28;20056;-62
2023/06/28 01:31:53;;;;;;;10.48;3.38;;;15.30;99.90;;;;;;5039997;28;20058;-62
2023/06/28 01:34:19;;;;;;;8.10;2.92;;;15.30;99.90;;;;;;5056471;28;20124;-62
2023/06/28 01:36:47;;;;;;;7.15;3.78;;;15.30;99.90;;;;;;5056612;28;20438;-62
2023/06/28 01:39:14;;;;;;;5.78;2.95;;;15.30;99.90;;;;;;5055783;28;20044;-62
2023/06/28 01:41:41;;;;;;;8.95;4.15;;;15.30;99.90;;;;;;5039409;28;20048;-62
2023/06/28 01:44:07;;;;;;;7.95;3.47;;;15.30;99.90;;;;;;5074754;28;20058;-62
2023/06/28 01:46:34;;;;;;;6.38;3.22;;;15.30;99.90;;;;;;5073558;28;20485;-62
2023/06/28 01:49:00;;;;;;;7.00;3.47;;;15.20;99.90;;;;;;5056289;28;20443;-62
2023/06/28 01:51:26;;;;;;;8.60;3.30;;;15.20;99.90;;;;;;5073827;28;20032;-62
2023/06/28 01:53:52;;;;;;;9.38;3.30;;;15.20;99.90;;;;;;5055661;28;20045;-62
2023/06/28 01:56:17;;;;;;;8.88;3.75;;;15.20;99.90;;;;;;5056243;28;20079;-62
2023/06/28 01:58:43;;;;;;;9.15;3.67;;;15.20;99.90;;;;;;5056295;28;20048;-62
2023/06/28 02:01:09;;;;;;;9.27;3.75;;;15.20;99.90;;;;;;5037890;28;20044;-62
2023/06/28 02:03:35;;;;;;;9.57;4.47;;;15.20;99.90;;;;;;5074060;28;20044;-62
2023/06/28 02:06:01;;;;;;;7.10;3.47;;;15.20;99.90;;;;;;5056033;28;20032;-62
2023/06/28 02:08:26;;;;;;;10.55;3.83;;;15.20;99.90;;;;;;5055595;28;20040;-62
2023/06/28 02:10:52;;;;;;;6.97;3.42;;;15.30;99.90;;;;;;5056253;28;20040;-62
2023/06/28 02:13:18;;;;;;;10.93;4.20;;;15.20;99.90;;;;;;5045638;28;20052;-62
2023/06/28 02:15:43;;;;;;;9.05;4.50;;;15.30;99.90;;;;;;5035221;28;20044;-62
2023/06/28 02:18:10;;;;;;;8.23;3.90;;;15.30;99.90;;;;;;5036239;28;20041;-62
2023/06/28 02:20:35;;;;;;;9.25;4.97;;;15.30;99.90;;;;;;5036040;28;20091;-63
2023/06/28 02:23:01;;;;;;;7.60;3.78;;;15.30;99.90;;;;;;5034795;28;20041;-63
2023/06/28 02:25:27;;;;;;;9.98;4.40;;;15.30;99.90;;;;;;5035693;28;20067;-63
2023/06/28 02:27:53;;;;;;;9.57;4.63;;;15.20;99.90;;;;;;5053571;28;20047;-63
2023/06/28 02:30:19;;;;;;;8.73;4.07;;;15.20;99.90;;;;;;5052578;28;20056;-63
2023/06/28 02:32:45;;;;;;;13.27;5.60;;;15.20;99.90;;;;;;5035454;28;20036;-63
2023/06/28 02:35:12;;;;;;;8.35;4.30;;;15.20;99.90;;;;;;5034920;28;20115;-63
2023/06/28 02:37:37;;;;;;;7.57;4.13;;;15.10;99.90;;;;;;5053890;28;20041;-64
2023/06/28 02:40:04;;;;;;;11.07;4.82;;;15.20;99.90;;;;;;5053249;28;20401;-63
2023/06/28 02:42:30;;;;;;;10.02;5.15;;;15.20;99.90;;;;;;5017941;28;20547;-63
2023/06/28 02:44:56;;;;;;;6.90;4.25;;;15.10;99.90;;;;;;5018896;28;20167;-64
2023/06/28 02:47:21;;;;;;;9.32;4.35;;;15.10;99.90;;;;;;5053233;28;20052;-63
2023/06/28 02:49:47;;;;;;;9.32;4.47;;;15.20;99.90;;;;;;5034661;28;20057;-63
2023/06/28 02:52:12;;;;;;;9.52;3.70;;;15.10;99.90;;;;;;5035184;28;20041;-63
2023/06/28 02:54:38;;;;;;;8.48;4.40;;;15.10;99.90;;;;;;5035481;28;20183;-63
2023/06/28 02:57:10;;;;;;;7.20;4.15;;;15.20;99.90;;;;;;5051129;28;20063;-63
2023/06/28 02:59:35;;;;;;;7.18;3.83;;;15.10;99.90;;;;;;5051568;28;20041;-63
2023/06/28 03:02:04;;;;;;;6.63;3.70;;;15.10;99.90;;;;;;5018362;28;20040;-64
2023/06/28 03:04:29;;;;;;;6.53;3.55;;;15.10;99.90;;;;;;5034313;28;20061;-63
2023/06/28 03:06:55;;;;;;;8.40;3.72;;;15.10;99.90;;;;;;5053040;28;20041;-64
2023/06/28 03:09:21;;;;;;;6.03;3.22;;;15.10;99.90;;;;;;5052880;28;20453;-63
2023/06/28 03:11:47;;;;;;;7.18;3.25;;;15.10;99.90;;;;;;5051862;28;20041;-64
2023/06/28 03:14:13;;;;;;;7.40;3.78;;;15.10;99.90;;;;;;5034776;28;20103;-63
2023/06/28 03:16:38;;;;;;;8.35;4.00;;;15.10;99.90;;;;;;5035069;28;20397;-63
2023/06/28 03:19:08;;;;;;;6.32;3.17;;;15.00;99.90;;;;;;5034118;28;20059;-63
2023/06/28 03:21:34;;;;;;;6.85;3.15;;;15.10;99.90;;;;;;5034442;28;20045;-64
2023/06/28 03:23:59;;;;;;;6.85;2.90;;;15.10;99.90;;;;;;5052415;28;20047;-64
2023/06/28 03:26:25;;;;;;;6.13;2.90;;;15.00;99.90;;;;;;5051551;28;20037;-64
2023/06/28 03:28:53;;;;;;;6.63;3.60;;;15.00;99.90;;;;;;5052457;28;20033;-64
2023/06/28 03:31:19;;;;;;;5.95;3.13;;;15.00;99.90;;;;;;5052209;28;20049;-64
2023/06/28 03:33:44;;;;;;;6.78;2.85;;;15.00;99.90;;;;;;5051756;28;20477;-63
2023/06/28 03:36:10;;;;;;;4.72;2.25;;;15.00;99.90;;;;;;5034775;28;20557;-64
2023/06/28 03:38:36;;;;;;;6.18;2.42;;;15.00;99.90;;;;;;5033647;28;20041;-64
2023/06/28 03:41:02;;;;;;;6.97;3.22;;;15.00;99.90;;;;;;5052055;28;20103;-63
2023/06/28 03:43:27;;;;;;;5.65;2.72;;;15.00;99.90;;;;;;5034224;28;20052;-64
2023/06/28 03:45:53;;;;;;;7.38;2.85;;;15.00;99.90;;;;;;5051341;28;20036;-64
2023/06/28 03:48:19;;;;;;;8.77;2.72;;;15.00;99.90;;;;;;5034659;28;20589;-63
2023/06/28 03:50:45;;;;;;;6.13;2.97;;;15.00;99.90;;;;;;5034344;28;20048;-64
2023/06/28 03:53:11;;;;;;;6.88;2.88;;;15.00;99.90;;;;;;5051701;28;20414;-63
2023/06/28 03:55:37;;;;;;;6.60;2.88;;;15.00;99.90;;;;;;5034305;28;20033;-63
2023/06/28 03:58:02;;;;;;;6.32;2.38;;;15.00;99.90;;;;;;5051864;28;20120;-64
2023/06/28 04:00:28;;;;;;;7.45;2.50;;;15.00;99.90;;;;;;5033154;28;20087;-64
2023/06/28 04:02:54;;;;;;;5.78;2.33;;;15.10;99.90;;;;;;5017702;28;20072;-64
2023/06/28 04:05:20;;;;;;;6.32;2.22;;;15.10;99.90;;;;;;5034131;28;20454;-63
2023/06/28 04:07:54;;;;;;;8.50;2.72;;;15.10;99.90;;;;;;5016980;28;20044;-64
2023/06/28 04:10:21;;;;;;;5.45;2.33;;;15.10;99.90;;;;;;5052038;28;20048;-64
2023/06/28 04:12:46;;;;;;;8.23;2.38;;;15.10;99.90;;;;;;5017705;28;20068;-64
2023/06/28 04:15:12;;;;;;;6.72;2.85;;;15.10;99.90;;;;;;5051297;28;20040;-64
2023/06/28 04:17:37;;;;;;;5.82;2.25;;;15.10;99.90;;;;;;5051975;28;20095;-64
2023/06/28 04:20:07;;;;;;;7.78;2.72;;;15.10;99.90;;;;;;5051951;28;20076;-64
2023/06/28 04:22:33;;;;;;;5.68;2.60;;;15.10;99.90;;;;;;5033346;28;20056;-64
2023/06/28 04:24:59;;;;;;;5.75;2.35;;;15.10;99.90;;;;;;5047795;28;20045;-64
2023/06/28 04:27:25;;;;;;;5.53;2.58;;;15.20;99.90;;;;;;5037894;28;20040;-64
2023/06/28 04:29:51;;;;;;;5.82;2.63;;;15.20;99.90;;;;;;5054828;28;20056;-64
2023/06/28 04:32:24;;;;;;;6.80;3.10;;;15.30;99.90;;;;;;5021351;28;20482;-64
2023/06/28 04:34:53;;;;;;;5.13;2.20;;;15.30;99.90;;;;;;5021060;28;20041;-64
2023/06/28 04:37:28;;;;;;;7.05;2.97;;;15.30;99.90;;;;;;5038094;28;20394;-64
2023/06/28 04:39:54;;;;;;;7.55;3.08;;;15.40;99.90;;;;;;5055687;28;20405;-64
2023/06/28 04:42:21;;;;;;;6.72;2.95;;;15.40;99.90;;;;;;5054473;28;20041;-64
2023/06/28 04:44:50;;;;;;;7.20;2.70;;;15.40;99.90;;;;;;5055194;28;20486;-64
2023/06/28 04:47:16;;;;;;;4.78;2.38;;;15.50;99.90;;;;;;5055479;28;20037;-64
2023/06/28 04:49:47;;;;;;;6.90;2.78;;;15.50;99.90;;;;;;5037053;28;20124;-64
2023/06/28 04:52:18;;;;;;;8.30;3.33;;;15.50;99.90;;;;;;5055352;28;20041;-64
2023/06/28 04:54:48;;;;;;;5.88;2.50;;;15.50;99.90;;;;;;5037214;28;20113;-64
2023/06/28 04:57:15;;;;;;;6.00;2.65;;;15.50;99.90;;;;;;5019985;28;20041;-64
2023/06/28 04:59:41;;;;;;;5.50;2.80;;;15.50;99.90;;;;;;5037643;28;20044;-64
2023/06/28 05:02:09;;;;;;;6.72;2.88;;;15.50;99.90;;;;;;5055559;28;20045;-64
2023/06/28 05:04:36;;;;;;;7.57;3.05;;;15.50;99.90;;;;;;5054760;28;20076;-64
2023/06/28 05:07:04;;;;;;;9.77;3.22;;;15.60;99.90;;;;;;5039533;28;20584;-65
2023/06/28 05:09:34;;;;;;;6.40;2.72;;;15.60;99.90;;;;;;5057464;28;20386;-64
2023/06/28 05:12:01;;;;;;;7.13;3.28;;;15.60;99.90;;;;;;5074415;28;20036;-64
2023/06/28 05:14:29;;;;;;;8.45;3.25;;;15.60;99.90;;;;;;5075115;28;20414;-64
2023/06/28 05:16:55;;;;;;;6.38;3.05;;;15.60;99.90;;;;;;5074210;28;20040;-64
2023/06/28 05:19:22;;;;;;;10.25;3.35;;;15.60;99.90;;;;;;5064809;28;20120;-64
2023/06/28 05:21:48;;;;;;;6.53;3.10;;;15.60;99.90;;;;;;5054656;28;20045;-64
2023/06/28 05:24:16;;;;;;;8.43;3.95;;;15.70;99.90;;;;;;5036093;28;20146;-65
2023/06/28 05:26:41;;;;;;;7.68;3.88;;;15.70;99.90;;;;;;5036757;28;20041;-64
2023/06/28 05:29:07;;;;;;;8.52;3.60;;;15.70;99.90;;;;;;5054912;28;20091;-64
2023/06/28 05:31:34;;;;;;;9.40;4.90;;;15.70;99.90;;;;;;5052532;28;20409;-64
2023/06/28 05:34:00;;;;;;;7.90;3.25;;;15.70;99.90;;;;;;5056335;28;20131;-64
2023/06/28 05:36:26;;;;;;;8.50;4.25;;;15.70;99.90;;;;;;5055977;28;20128;-64
2023/06/28 05:38:52;;;;;;;7.22;3.75;;;15.70;99.90;;;;;;5053450;28;20048;-64
2023/06/28 05:41:18;;;;;;;6.50;3.60;;;15.70;99.90;;;;;;5036536;28;20052;-64
2023/06/28 05:43:45;;;;;;;7.88;3.45;;;15.70;99.90;;;;;;5036554;28;20547;-64
2023/06/28 05:46:11;;;;;;;7.88;4.22;;;15.80;99.90;;;;;;5053943;28;20080;-64
2023/06/28 05:48:37;;;;;;;8.57;4.50;;;15.70;99.90;;;;;;5020071;28;20037;-64
2023/06/28 05:51:05;;;;;;;8.07;3.80;;;15.80;99.90;;;;;;5036746;28;20056;-64
2023/06/28 05:53:31;;;;;;;8.30;4.72;;;15.80;99.90;;;;;;5053428;28;20044;-64
2023/06/28 05:55:57;;;;;;;9.18;4.93;;;15.80;99.90;;;;;;5048112;28;20043;-64
2023/06/28 05:58:22;;;;;;;8.27;4.80;;;15.80;99.90;;;;;;5052833;28;20055;-65
2023/06/28 06:00:48;;;;;;;7.78;4.65;;;15.90;99.90;;;;;;5056761;28;20124;-64
2023/06/28 06:03:14;;;;;;;8.55;5.00;;;15.90;99.90;;;;;;5072624;28;20036;-64
2023/06/28 06:05:40;;;;;;;9.23;5.63;;;15.90;99.90;;;;;;5049125;28;20044;-64
2023/06/28 06:08:06;;;;;;;7.93;4.40;;;15.90;99.90;;;;;;5050446;28;20044;-64
2023/06/28 06:10:31;;;;;;;8.75;5.00;;;16.00;99.90;;;;;;5033303;28;20074;-65
2023/06/28 06:12:57;;;;;;;10.35;5.40;;;15.90;99.90;;;;;;5066242;28;20046;-64
2023/06/28 06:15:23;;;;;;;8.57;4.85;;;15.90;99.90;;;;;;5058876;28;20405;-64
2023/06/28 06:17:50;;;;;;;7.10;4.72;;;15.90;99.90;;;;;;5050115;28;20040;-65
2023/06/28 06:20:16;;;;;;;9.38;4.75;;;16.00;99.90;;;;;;5052917;28;20040;-64
2023/06/28 06:22:42;;;;;;;7.28;4.88;;;16.00;99.90;;;;;;5042635;28;20041;-64
2023/06/28 06:25:08;;;;;;;9.35;4.90;;;15.90;99.90;;;;;;5031527;28;20536;-64
2023/06/28 06:27:34;;;;;;;9.25;5.10;;;16.00;99.90;;;;;;5060340;28;20083;-64
2023/06/28 06:30:00;;;;;;;8.82;5.60;;;16.00;99.90;;;;;;5053617;28;20057;-64
2023/06/28 06:32:26;;;;;;;10.13;5.45;;;16.00;99.90;;;;;;5037596;28;20045;-64
2023/06/28 06:34:53;;;;;;;10.38;5.68;;;16.00;99.90;;;;;;5052405;28;20071;-64
2023/06/28 06:37:20;;;;;;;9.32;5.50;;;16.10;99.90;;;;;;5036465;28;20047;-64
2023/06/28 06:39:46;;;;;;;13.75;5.60;;;16.10;99.90;;;;;;5053046;28;20048;-64
2023/06/28 06:42:11;;;;;;;7.32;4.95;;;16.10;99.90;;;;;;5038923;28;20045;-65
2023/06/28 06:44:37;;;;;;;11.77;6.30;;;16.10;99.90;;;;;;5033536;28;20037;-65
2023/06/28 06:47:06;;;;;;;8.02;5.35;;;16.00;99.90;;;;;;5023598;28;20788;-64
2023/06/28 06:49:32;;;;;;;11.77;5.90;;;16.00;99.90;;;;;;5050389;28;20037;-65
2023/06/28 06:51:58;;;;;;;10.90;6.18;;;16.00;99.90;;;;;;5060238;28;20044;-64
2023/06/28 06:54:30;;;;;;;9.80;5.47;;;16.00;99.90;;;;;;5064568;28;20044;-65
2023/06/28 06:56:59;;;;;;;11.23;5.97;;;16.10;99.90;;;;;;5069371;28;20079;-64
2023/06/28 06:59:26;;;;;;;15.20;6.28;;;16.10;99.90;;;;;;5052398;28;20041;-65
2023/06/28 07:01:52;;;;;;;9.55;5.30;;;16.10;99.90;;;;;;5067640;28;20045;-64
2023/06/28 07:04:22;;;;;;;14.50;5.97;;;16.00;99.90;;;;;;5067550;28;20115;-64
2023/06/28 07:06:48;;;;;;;9.23;5.07;;;16.00;99.90;;;;;;5057725;28;20044;-64
2023/06/28 07:09:15;;;;;;;10.82;5.75;;;16.00;99.90;;;;;;5036405;28;20049;-65
2023/06/28 07:11:42;;;;;;;8.77;5.20;;;16.00;99.90;;;;;;5039338;28;20183;-64
2023/06/28 07:14:07;;;;;;;9.45;5.15;;;16.00;99.90;;;;;;5048745;28;20052;-64
2023/06/28 07:16:34;;;;;;;12.05;5.88;;;15.90;99.90;;;;;;5049206;28;20045;-64
2023/06/28 07:19:00;;;;;;;10.63;5.47;;;15.90;99.90;;;;;;5050633;28;20036;-64
2023/06/28 07:21:26;;;;;;;13.45;5.82;;;15.90;99.90;;;;;;5032881;28;20107;-64
2023/06/28 07:23:54;;;;;;;10.95;6.03;;;15.90;99.90;;;;;;5031639;28;20083;-64
2023/06/28 07:26:20;;;;;;;11.18;5.85;;;15.90;99.90;;;;;;5047904;28;20119;-63
2023/06/28 07:28:46;;;;;;;12.27;5.60;;;15.80;99.90;;;;;;5056803;28;20064;-63
2023/06/28 07:31:11;;;;;;;10.43;6.57;;;15.90;99.90;;;;;;5068428;28;20429;-63
2023/06/28 07:33:39;;;;;;;9.85;5.70;;;15.90;99.90;;;;;;5051549;28;20049;-63
2023/06/28 07:36:05;;;;;;;11.40;6.70;;;15.90;99.90;;;;;;5049294;28;20043;-63
2023/06/28 07:38:30;;;;;;;9.93;5.50;;;15.90;99.90;;;;;;5051006;28;20044;-63
2023/06/28 07:40:56;;;;;;;11.20;6.63;;;16.00;99.90;;;;;;5045263;28;20488;-64
2023/06/28 07:43:22;;;;;;;12.95;7.03;;;16.10;99.90;;;;;;5032257;28;20047;-63
2023/06/28 07:45:47;;;;;;;14.52;6.75;;;16.10;99.90;;;;;;5046523;28;20045;-63
2023/06/28 07:48:13;;;;;;;12.63;6.57;;;16.10;99.90;;;;;;5037087;28;20398;-63
2023/06/28 07:50:39;;;;;;;11.30;6.30;;;16.10;99.90;;;;;;5068882;28;20040;-63
2023/06/28 07:53:04;;;;;;;14.80;6.38;;;16.00;99.90;;;;;;5057648;28;20033;-63
2023/06/28 07:55:30;;;;;;;9.63;5.63;;;16.10;99.90;;;;;;5060600;28;20120;-64
2023/06/28 07:57:59;;;;;;;9.02;6.55;;;16.10;99.90;;;;;;5048535;28;20064;-64
2023/06/28 08:00:25;;;;;;;11.90;6.93;;;16.00;99.90;;;;;;5067497;28;20115;-63
2023/06/28 08:02:51;;;;;;;11.45;6.97;;;16.00;99.90;;;;;;5066110;28;20036;-64
2023/06/28 08:05:17;;;;;;;12.75;6.75;;;16.10;99.90;;;;;;5044275;28;20040;-63
2023/06/28 08:07:42;;;;;;;10.55;6.50;;;16.00;99.90;;;;;;5020567;28;20041;-63
2023/06/28 08:10:09;;;;;;;11.23;6.07;;;16.10;99.90;;;;;;5034900;28;20052;-64
2023/06/28 08:12:34;;;;;;;13.23;6.53;;;16.10;99.90;;;;;;5060689;28;20174;-64
2023/06/28 08:15:00;;;;;;;9.02;6.40;;;16.20;99.90;;;;;;5051420;28;20132;-63
2023/06/28 08:17:26;;;;;;;11.63;5.95;;;16.20;99.90;;;;;;5045122;28;20037;-63
2023/06/28 08:19:56;;;;;;;11.98;6.95;;;16.20;99.90;;;;;;5050772;28;20060;-63
2023/06/28 08:22:21;;;;;;;11.05;6.82;;;16.20;99.90;;;;;;5051280;28;20043;-63
2023/06/28 08:24:50;;;;;;;11.15;6.72;;;16.30;99.90;;;;;;5037715;28;20040;-64
2023/06/28 08:27:16;;;;;;;13.10;7.35;;;16.20;99.90;;;;;;5043635;28;20048;-63
2023/06/28 08:29:41;;;;;;;9.10;7.00;;;16.30;99.90;;;;;;5050614;28;20057;-63
2023/06/28 08:32:09;;;;;;;10.98;7.13;;;16.40;99.90;;;;;;5034275;28;20049;-63
2023/06/28 08:34:35;;;;;;;11.05;6.63;;;16.40;99.90;;;;;;5026337;28;20482;-63
2023/06/28 08:37:00;;;;;;;12.05;6.80;;;16.50;99.90;;;;;;5030569;28;20049;-63
2023/06/28 08:39:27;;;;;;;10.05;6.53;;;16.40;99.90;;;;;;5048552;28;20040;-64
2023/06/28 08:41:53;;;;;;;14.05;6.60;;;16.40;99.90;;;;;;5049166;28;20045;-63
2023/06/28 08:44:21;;;;;;;11.02;7.03;;;16.50;99.90;;;;;;5045246;28;20033;-63
2023/06/28 08:46:49;;;;;;;11.95;6.72;;;16.50;99.90;;;;;;5031929;28;20037;-63
2023/06/28 08:49:16;;;;;;;15.80;7.55;;;16.50;99.90;;;;;;5033111;28;20037;-63
2023/06/28 08:51:43;;;;;;;12.32;7.40;;;16.50;99.90;;;;;;5051307;28;20049;-63
2023/06/28 08:54:11;;;;;;;11.85;7.82;;;16.50;99.90;;;;;;5050603;28;20044;-63
2023/06/28 08:56:38;;;;;;;13.05;8.07;;;16.50;99.90;;;;;;5049837;28;20422;-63
2023/06/28 08:59:05;;;;;;;13.40;8.98;;;16.50;99.90;;;;;;5036729;28;20088;-63
2023/06/28 09:01:32;;;;;;;11.57;7.80;;;16.50;99.90;;;;;;5041529;28;20064;-63
2023/06/28 09:03:59;;;;;;;12.02;8.55;;;16.60;99.90;;;;;;5037104;28;20526;-63
2023/06/28 09:06:27;;;;;;;15.55;8.68;;;16.70;99.90;;;;;;5041271;28;20080;-63
2023/06/28 09:08:54;;;;;;;13.27;8.25;;;16.70;99.90;;;;;;5032002;28;20077;-63
2023/06/28 09:11:20;;;;;;;14.43;8.23;;;16.70;99.90;;;;;;5034227;28;20041;-63
2023/06/28 09:13:46;;;;;;;9.85;7.00;;;16.80;99.90;;;;;;5039005;28;20049;-63
2023/06/28 09:16:12;;;;;;;11.63;7.68;;;16.80;99.90;;;;;;5031037;28;20056;-63
2023/06/28 09:18:38;;;;;;;10.82;7.97;;;16.90;99.90;;;;;;5039694;28;20405;-63
2023/06/28 09:21:04;;;;;;;12.38;8.70;;;16.90;99.90;;;;;;5043101;28;20041;-63
2023/06/28 09:23:32;;;;;;;11.15;7.88;;;17.00;99.90;;;;;;5033453;28;20045;-63
2023/06/28 09:25:58;;;;;;;10.90;8.25;;;16.90;99.90;;;;;;5053982;28;20045;-63
2023/06/28 09:28:35;;;;;;;11.13;9.18;;;16.90;99.90;;;;;;5046045;28;20041;-65
2023/06/28 09:31:05;;;;;;;12.55;9.70;;;16.90;99.90;;;;;;5045618;28;20049;-64
2023/06/28 09:33:31;;;;;;;14.95;7.65;;;16.90;99.90;;;;;;5054497;28;20038;-64
2023/06/28 09:35:58;;;;;;;11.30;8.65;;;16.90;99.90;;;;;;5035632;28;20038;-64
2023/06/28 09:38:25;;;;;;;10.65;7.63;;;16.90;99.90;;;;;;5052819;28;20466;-65
2023/06/28 09:41:16;;;;;;;11.63;8.40;;;16.90;99.90;;;;;;5054413;28;20493;-65
2023/06/28 09:43:42;;;;;;;13.48;7.90;;;16.90;99.90;;;;;;5053956;28;20041;-64
2023/06/28 09:46:16;;;;;;;12.23;8.40;;;16.90;99.90;;;;;;5033154;28;20037;-64
2023/06/28 09:48:49;;;;;;;9.95;7.43;;;16.90;99.90;;;;;;5049921;28;20034;-64
2023/06/28 09:51:18;;;;;;;10.52;8.30;;;16.90;99.90;;;;;;5033071;28;20050;-64
2023/06/28 09:53:49;;;;;;;10.98;7.72;;;16.90;99.90;;;;;;5037632;28;20045;-64
2023/06/28 09:56:18;;;;;;;9.55;7.32;;;17.00;99.90;;;;;;5052146;28;20111;-63
2023/06/28 09:58:47;;;;;;;10.85;7.47;;;17.00;99.90;;;;;;5041806;28;20124;-64
2023/06/28 10:01:17;;;;;;;13.95;9.48;;;17.10;99.90;;;;;;5045711;28;20045;-64
2023/06/28 10:03:44;;;;;;;11.85;9.07;;;17.20;99.90;;;;;;5039040;28;20393;-64
2023/06/28 10:06:10;;;;;;;12.45;9.20;;;17.20;99.90;;;;;;5049770;28;20116;-64
2023/06/28 10:08:38;;;;;;;11.57;8.85;;;17.20;99.90;;;;;;5039453;28;20068;-63
2023/06/28 10:11:09;;;;;;;13.15;8.43;;;17.30;99.90;;;;;;5052106;28;20490;-64
2023/06/28 10:13:37;;;;;;;11.32;8.73;;;17.40;99.90;;;;;;5037171;28;20450;-64
2023/06/28 10:16:07;;;;;;;12.75;8.63;;;17.40;99.90;;;;;;5029819;28;20057;-64
2023/06/28 10:18:33;;;;;;;14.38;9.55;;;17.30;99.90;;;;;;5036037;28;20045;-64
2023/06/28 10:21:06;;;;;;;11.32;9.43;;;17.30;99.90;;;;;;5045530;28;20035;-64
2023/06/28 10:23:35;;;;;;;12.93;9.77;;;17.40;99.90;;;;;;5045896;28;20494;-64
2023/06/28 10:26:05;;;;;;;12.15;8.75;;;17.40;99.90;;;;;;5046796;28;20064;-64
2023/06/28 10:28:35;;;;;;;12.80;9.65;;;17.40;99.90;;;;;;5033751;28;20060;-64
2023/06/28 10:31:05;;;;;;;11.88;10.05;;;17.50;99.90;;;;;;5036558;28;20049;-64
2023/06/28 10:33:32;;;;;;;13.52;10.05;;;17.50;99.90;;;;;;5023052;28;20045;-64
2023/06/28 10:36:02;;;;;;;12.65;9.63;;;17.50;99.90;;;;;;5015960;28;20034;-65
2023/06/28 10:38:38;;;;;;;13.13;9.73;;;17.60;99.90;;;;;;5041636;28;20033;-64
2023/06/28 10:41:07;;;;;;;14.93;10.02;;;17.60;99.90;;;;;;5052768;28;20044;-64
2023/06/28 10:43:33;;;;;;;13.75;9.88;;;17.70;99.90;;;;;;5029682;28;20490;-64
2023/06/28 10:45:59;;;;;;;14.43;10.20;;;17.70;99.90;;;;;;5033410;28;20041;-65
2023/06/28 10:48:27;;;;;;;15.18;11.10;;;17.70;99.90;;;;;;5060814;28;20115;-64
2023/06/28 10:50:58;;;;;;;16.38;10.10;;;17.70;99.90;;;;;;5042073;28;20041;-64
2023/06/28 10:53:26;;;;;;;12.80;10.25;;;17.70;99.90;;;;;;5040859;28;20516;-64
2023/06/28 10:56:04;;;;;;;12.60;8.95;;;17.70;99.90;;;;;;5032742;28;20045;-65
2023/06/28 10:58:42;;;;;;;15.57;11.27;;;17.70;99.90;;;;;;5025114;28;20435;-64
2023/06/28 11:01:10;;;;;;;14.10;11.40;;;17.70;99.90;;;;;;5052613;28;20106;-64
2023/06/28 11:03:43;;;;;;;12.38;9.75;;;17.70;99.90;;;;;;5043622;28;20485;-64
2023/06/28 11:06:13;;;;;;;13.25;10.10;;;17.60;99.90;;;;;;5034814;28;20037;-64
2023/06/28 11:08:45;;;;;;;12.45;10.63;;;17.70;99.90;;;;;;5042316;28;20033;-64
2023/06/28 11:11:35;;;;;;;14.43;10.75;;;17.70;99.90;;;;;;5034333;28;20045;-66
2023/06/28 11:14:36;;;;;;;13.30;11.07;;;17.70;99.90;;;;;;5033768;28;20056;-65
2023/06/28 11:17:07;;;;;;;14.63;11.70;;;17.80;99.90;;;;;;4935180;29;20082;-64
2023/06/28 11:19:33;;;;;;;12.98;11.18;;;17.70;99.90;;;;;;5034155;28;20052;-64
2023/06/28 11:22:01;;;;;;;12.68;10.18;;;17.70;99.90;;;;;;5047301;28;20048;-65
2023/06/28 11:24:32;;;;;;;13.68;10.45;;;17.70;99.90;;;;;;5065627;28;20032;-64
2023/06/28 11:26:58;;;;;;;15.27;10.60;;;17.70;99.90;;;;;;5037350;28;20410;-65
2023/06/28 11:29:24;;;;;;;11.30;9.30;;;17.70;99.90;;;;;;5045017;28;20114;-64
2023/06/28 11:31:57;;;;;;;12.77;9.80;;;17.80;99.90;;;;;;5059528;28;20438;-64
2023/06/28 11:34:24;;;;;;;13.45;9.55;;;17.80;99.90;;;;;;5033867;28;20041;-64
2023/06/28 11:36:51;;;;;;;13.90;9.70;;;17.80;99.90;;;;;;5050154;28;20045;-64
2023/06/28 11:39:25;;;;;;;13.35;10.77;;;17.80;99.90;;;;;;5051045;28;20076;-64
2023/06/28 11:41:51;;;;;;;;;;;17.90;99.90;;;;;;5052624;28;20042;-64
2023/06/28 11:44:17;;;;;;;11.95;9.65;;;17.90;99.90;;;;;;5050127;28;19917;-64
2023/06/28 11:46:45;;;;;;;12.23;10.27;;;17.80;99.90;;;;;;5050977;28;20036;-64
2023/06/28 11:49:13;;;;;;;13.00;10.23;;;17.80;99.90;;;;;;5051098;28;20044;-64
2023/06/28 11:51:41;;;;;;;15.15;10.50;;;17.80;99.90;;;;;;5050170;28;20041;-64
2023/06/28 11:54:07;;;;;;;12.40;10.05;;;17.90;99.90;;;;;;5042230;28;20536;-64
2023/06/28 11:56:46;;;;;;;12.65;10.38;;;17.90;99.90;;;;;;5043471;28;20037;-64
2023/06/28 11:59:17;;;;;;;13.02;10.18;;;17.90;99.90;;;;;;5061427;28;20063;-64
2023/06/28 12:01:44;;;;;;;15.38;11.48;;;17.90;99.90;;;;;;5058402;28;20041;-64
2023/06/28 12:04:17;;;;;;;14.02;12.13;;;17.90;99.90;;;;;;5040051;28;20391;-64
2023/06/28 12:06:43;;;;;;;13.32;11.80;;;18.00;99.90;;;;;;5030759;28;20041;-64
2023/06/28 12:09:23;;;;;;;18.23;13.93;;;17.90;99.90;;;;;;5040728;28;20041;-64
2023/06/28 12:11:53;;;;;;;16.38;13.13;;;17.90;99.90;;;;;;5050952;28;20553;-64
2023/06/28 12:14:20;;;;;;;20.75;15.55;;;17.90;99.90;;;;;;5051221;28;20127;-64
2023/06/28 12:16:47;;;;;;;16.95;13.35;;;17.90;99.90;;;;;;5050301;28;20040;-65
2023/06/28 12:19:16;;;;;;;22.98;17.67;;;18.00;99.90;;;;;;5050463;28;20052;-64
2023/06/28 12:21:42;;;;;;;24.70;19.05;;;18.10;99.90;;;;;;5024286;28;20049;-64
2023/06/28 12:24:24;;;;;;;26.15;20.65;;;18.10;99.90;;;;;;5033325;28;20124;-64
2023/06/28 12:26:51;;;;;;;25.63;18.55;;;18.20;99.90;;;;;;5047796;28;20559;-64
2023/06/28 12:29:26;;;;;;;25.40;19.95;;;18.30;99.90;;;;;;5050338;28;20037;-65
2023/06/28 12:31:53;;;;;;;28.42;20.65;;;18.30;99.90;;;;;;5034592;28;20041;-64
2023/06/28 12:34:23;;;;;;;23.33;19.02;;;18.30;99.90;;;;;;5044887;28;20095;-64
2023/06/28 12:36:53;;;;;;;24.83;19.92;;;18.40;99.90;;;;;;5034120;28;20048;-64
2023/06/28 12:39:24;;;;;;;25.50;19.60;;;18.40;99.90;;;;;;5051761;28;20053;-65
2023/06/28 12:42:10;;;;;;;29.42;22.30;;;18.40;99.90;;;;;;5040575;28;20397;-64